sensor_id;sensor_type;location;lat;lon;timestamp;temperature;humidity
46085;DHT22;31823;47.032;8.310;2023-06-22T00:01:55;19.60;99.90
46085;DHT22;31823;47.032;8.310;2023-06-22T00:04:21;19.50;99.90
46085;DHT22;31823;47.032;8.310;2023-06-22T00:06:46;19.50;99.90
46085;DHT22;31823;47.032;8.310;2023-06-22T00:09:12;19.40;99.90
46085;DHT22;31823;47.032;8.310;2023-06-22T00:11:37;19.40;99.90
46085;DHT22;31823;47.032;8.310;2023-06-22T00:14:03;19.40;99.90
46085;DHT22;31823;47.032;8.310;2023-06-22T00:16:29;19.30;99.90
46085;DHT22;31823;47.032;8.310;2023-06-22T00:18:55;19.40;99.90
46085;DHT22;31823;47.032;8.310;2023-06-22T00:21:20;19.50;99.90
46085;DHT22;31823;47.032;8.310;2023-06-22T00:23:46;19.40;99.90
46085;DHT22;31823;47.032;8.310;2023-06-22T00:26:15;19.40;99.90
46085;DHT22;31823;47.032;8.310;2023-06-22T00:28:41;19.30;99.90
46085;DHT22;31823;47.032;8.310;2023-06-22T00:31:06;19.30;99.90
46085;DHT22;31823;47.032;8.310;2023-06-22T00:33:32;19.30;99.90
46085;DHT22;31823;47.032;8.310;2023-06-22T00:35:57;19.30;99.90
46085;DHT22;31823;47.032;8.310;2023-06-22T00:38:23;19.30;99.90
46085;DHT22;31823;47.032;8.310;2023-06-22T00:40:49;19.30;99.90
46085;DHT22;31823;47.032;8.310;2023-06-22T00:43:14;19.30;99.90
46085;DHT22;31823;47.032;8.310;2023-06-22T00:45:40;19.30;99.90
46085;DHT22;31823;47.032;8.310;2023-06-22T00:48:06;19.20;99.90
46085;DHT22;31823;47.032;8.310;2023-06-22T00:50:33;19.10;99.90
46085;DHT22;31823;47.032;8.310;2023-06-22T00:53:04;19.10;99.90
46085;DHT22;31823;47.032;8.310;2023-06-22T00:55:35;19.00;99.90
46085;DHT22;31823;47.032;8.310;2023-06-22T00:58:03;19.00;99.90
46085;DHT22;31823;47.032;8.310;2023-06-22T01:00:31;19.00;99.90
46085;DHT22;31823;47.032;8.310;2023-06-22T01:02:58;19.00;99.90
46085;DHT22;31823;47.032;8.310;2023-06-22T01:05:24;19.10;99.90
46085;DHT22;31823;47.032;8.310;2023-06-22T01:08:06;19.00;99.90
46085;DHT22;31823;47.032;8.310;2023-06-22T01:10:35;19.00;99.90
46085;DHT22;31823;47.032;8.310;2023-06-22T01:13:07;19.10;99.90
46085;DHT22;31823;47.032;8.310;2023-06-22T01:15:51;19.10;99.90
46085;DHT22;31823;47.032;8.310;2023-06-22T01:18:19;19.00;99.90
46085;DHT22;31823;47.032;8.310;2023-06-22T01:20:46;19.00;99.90
46085;DHT22;31823;47.032;8.310;2023-06-22T01:23:29;18.90;99.90
46085;DHT22;31823;47.032;8.310;2023-06-22T01:26:35;18.90;99.90
46085;DHT22;31823;47.032;8.310;2023-06-22T01:29:04;18.90;99.90
46085;DHT22;31823;47.032;8.310;2023-06-22T01:31:31;18.90;99.90
46085;DHT22;31823;47.032;8.310;2023-06-22T01:34:00;18.90;99.90
46085;DHT22;31823;47.032;8.310;2023-06-22T01:36:27;18.70;99.90
46085;DHT22;31823;47.032;8.310;2023-06-22T01:38:53;18.70;99.90
46085;DHT22;31823;47.032;8.310;2023-06-22T01:41:20;18.80;99.90
46085;DHT22;31823;47.032;8.310;2023-06-22T01:43:47;18.80;99.90
46085;DHT22;31823;47.032;8.310;2023-06-22T01:46:13;18.80;99.90
46085;DHT22;31823;47.032;8.310;2023-06-22T01:48:40;18.70;99.90
46085;DHT22;31823;47.032;8.310;2023-06-22T01:51:06;18.80;99.90
46085;DHT22;31823;47.032;8.310;2023-06-22T01:53:32;18.70;99.90
46085;DHT22;31823;47.032;8.310;2023-06-22T01:55:57;18.60;99.90
46085;DHT22;31823;47.032;8.310;2023-06-22T01:58:26;18.60;99.90
46085;DHT22;31823;47.032;8.310;2023-06-22T02:00:59;18.60;99.90
46085;DHT22;31823;47.032;8.310;2023-06-22T02:03:34;18.50;99.90
46085;DHT22;31823;47.032;8.310;2023-06-22T02:06:05;18.60;99.90
46085;DHT22;31823;47.032;8.310;2023-06-22T02:08:38;18.60;99.90
46085;DHT22;31823;47.032;8.310;2023-06-22T02:11:06;18.60;99.90
46085;DHT22;31823;47.032;8.310;2023-06-22T02:13:33;18.50;99.90
46085;DHT22;31823;47.032;8.310;2023-06-22T02:15:59;18.50;99.90
46085;DHT22;31823;47.032;8.310;2023-06-22T02:18:25;18.60;99.90
46085;DHT22;31823;47.032;8.310;2023-06-22T02:20:51;18.60;99.90
46085;DHT22;31823;47.032;8.310;2023-06-22T02:23:16;18.70;99.90
46085;DHT22;31823;47.032;8.310;2023-06-22T02:25:42;18.70;99.90
46085;DHT22;31823;47.032;8.310;2023-06-22T02:28:09;18.60;99.90
46085;DHT22;31823;47.032;8.310;2023-06-22T02:30:35;18.70;99.90
46085;DHT22;31823;47.032;8.310;2023-06-22T02:33:01;18.70;99.90
46085;DHT22;31823;47.032;8.310;2023-06-22T02:35:27;18.70;99.90
46085;DHT22;31823;47.032;8.310;2023-06-22T02:37:59;18.80;99.90
46085;DHT22;31823;47.032;8.310;2023-06-22T02:40:26;18.60;99.90
46085;DHT22;31823;47.032;8.310;2023-06-22T02:42:52;18.60;99.90
46085;DHT22;31823;47.032;8.310;2023-06-22T02:45:17;18.60;99.90
46085;DHT22;31823;47.032;8.310;2023-06-22T02:47:43;18.60;99.90
46085;DHT22;31823;47.032;8.310;2023-06-22T02:50:09;18.60;99.90
46085;DHT22;31823;47.032;8.310;2023-06-22T02:52:35;18.60;99.90
46085;DHT22;31823;47.032;8.310;2023-06-22T02:55:00;18.60;99.90
46085;DHT22;31823;47.032;8.310;2023-06-22T02:57:26;18.50;99.90
46085;DHT22;31823;47.032;8.310;2023-06-22T02:59:51;18.50;99.90
46085;DHT22;31823;47.032;8.310;2023-06-22T03:02:17;18.50;99.90
46085;DHT22;31823;47.032;8.310;2023-06-22T03:04:43;18.30;99.90
46085;DHT22;31823;47.032;8.310;2023-06-22T03:07:09;18.40;99.90
46085;DHT22;31823;47.032;8.310;2023-06-22T03:09:34;18.40;99.90
46085;DHT22;31823;47.032;8.310;2023-06-22T03:12:00;18.40;99.90
46085;DHT22;31823;47.032;8.310;2023-06-22T03:14:27;18.30;99.90
46085;DHT22;31823;47.032;8.310;2023-06-22T03:16:53;18.30;99.90
46085;DHT22;31823;47.032;8.310;2023-06-22T03:19:18;18.40;99.90
46085;DHT22;31823;47.032;8.310;2023-06-22T03:21:44;18.40;99.90
46085;DHT22;31823;47.032;8.310;2023-06-22T03:24:10;18.30;99.90
46085;DHT22;31823;47.032;8.310;2023-06-22T03:26:36;18.30;99.90
46085;DHT22;31823;47.032;8.310;2023-06-22T03:29:01;18.20;99.90
46085;DHT22;31823;47.032;8.310;2023-06-22T03:31:27;18.20;99.90
46085;DHT22;31823;47.032;8.310;2023-06-22T03:33:52;18.20;99.90
46085;DHT22;31823;47.032;8.310;2023-06-22T03:36:18;18.10;99.90
46085;DHT22;31823;47.032;8.310;2023-06-22T03:38:45;18.20;99.90
46085;DHT22;31823;47.032;8.310;2023-06-22T03:41:11;18.20;99.90
46085;DHT22;31823;47.032;8.310;2023-06-22T03:43:37;18.20;99.90
46085;DHT22;31823;47.032;8.310;2023-06-22T03:46:02;18.20;99.90
46085;DHT22;31823;47.032;8.310;2023-06-22T03:48:28;18.20;99.90
46085;DHT22;31823;47.032;8.310;2023-06-22T03:50:54;18.10;99.90
46085;DHT22;31823;47.032;8.310;2023-06-22T03:53:19;18.00;99.90
46085;DHT22;31823;47.032;8.310;2023-06-22T03:55:49;18.00;99.90
46085;DHT22;31823;47.032;8.310;2023-06-22T03:58:16;18.00;99.90
46085;DHT22;31823;47.032;8.310;2023-06-22T04:00:41;18.00;99.90
46085;DHT22;31823;47.032;8.310;2023-06-22T04:03:07;18.00;99.90
46085;DHT22;31823;47.032;8.310;2023-06-22T04:05:33;17.90;99.90
46085;DHT22;31823;47.032;8.310;2023-06-22T04:07:58;17.80;99.90
46085;DHT22;31823;47.032;8.310;2023-06-22T04:10:24;17.90;99.90
46085;DHT22;31823;47.032;8.310;2023-06-22T04:12:49;17.90;99.90
46085;DHT22;31823;47.032;8.310;2023-06-22T04:15:15;17.90;99.90
46085;DHT22;31823;47.032;8.310;2023-06-22T04:17:40;18.00;99.90
46085;DHT22;31823;47.032;8.310;2023-06-22T04:20:07;18.00;99.90
46085;DHT22;31823;47.032;8.310;2023-06-22T04:22:33;18.10;99.90
46085;DHT22;31823;47.032;8.310;2023-06-22T04:24:58;18.10;99.90
46085;DHT22;31823;47.032;8.310;2023-06-22T04:27:24;18.10;99.90
46085;DHT22;31823;47.032;8.310;2023-06-22T04:29:49;18.10;99.90
46085;DHT22;31823;47.032;8.310;2023-06-22T04:32:16;18.20;99.90
46085;DHT22;31823;47.032;8.310;2023-06-22T04:34:43;18.20;99.90
46085;DHT22;31823;47.032;8.310;2023-06-22T04:37:08;18.20;99.90
46085;DHT22;31823;47.032;8.310;2023-06-22T04:39:34;18.20;99.90
46085;DHT22;31823;47.032;8.310;2023-06-22T04:41:59;18.20;99.90
46085;DHT22;31823;47.032;8.310;2023-06-22T04:44:26;18.20;99.90
46085;DHT22;31823;47.032;8.310;2023-06-22T04:46:53;18.10;99.90
46085;DHT22;31823;47.032;8.310;2023-06-22T04:49:20;18.10;99.90
46085;DHT22;31823;47.032;8.310;2023-06-22T04:51:47;18.10;99.90
46085;DHT22;31823;47.032;8.310;2023-06-22T04:54:13;18.10;99.90
46085;DHT22;31823;47.032;8.310;2023-06-22T04:56:38;18.10;99.90
46085;DHT22;31823;47.032;8.310;2023-06-22T04:59:06;18.20;99.90
46085;DHT22;31823;47.032;8.310;2023-06-22T05:01:32;18.20;99.90
46085;DHT22;31823;47.032;8.310;2023-06-22T05:03:57;18.20;99.90
46085;DHT22;31823;47.032;8.310;2023-06-22T05:06:26;18.30;99.90
46085;DHT22;31823;47.032;8.310;2023-06-22T05:08:55;18.40;99.90
46085;DHT22;31823;47.032;8.310;2023-06-22T05:11:28;18.30;99.90
46085;DHT22;31823;47.032;8.310;2023-06-22T05:13:54;18.40;99.90
46085;DHT22;31823;47.032;8.310;2023-06-22T05:16:20;18.40;99.90
46085;DHT22;31823;47.032;8.310;2023-06-22T05:18:52;18.50;99.90
46085;DHT22;31823;47.032;8.310;2023-06-22T05:21:21;18.50;99.90
46085;DHT22;31823;47.032;8.310;2023-06-22T05:23:47;18.40;99.90
46085;DHT22;31823;47.032;8.310;2023-06-22T05:26:12;18.50;99.90
46085;DHT22;31823;47.032;8.310;2023-06-22T05:28:38;18.60;99.90
46085;DHT22;31823;47.032;8.310;2023-06-22T05:31:03;18.70;99.90
46085;DHT22;31823;47.032;8.310;2023-06-22T05:33:29;18.60;99.90
46085;DHT22;31823;47.032;8.310;2023-06-22T05:35:54;18.70;99.90
46085;DHT22;31823;47.032;8.310;2023-06-22T05:38:20;18.80;99.90
46085;DHT22;31823;47.032;8.310;2023-06-22T05:40:45;18.90;99.90
46085;DHT22;31823;47.032;8.310;2023-06-22T05:43:11;19.10;99.90
46085;DHT22;31823;47.032;8.310;2023-06-22T05:45:36;19.10;99.90
46085;DHT22;31823;47.032;8.310;2023-06-22T05:48:02;19.10;99.90
46085;DHT22;31823;47.032;8.310;2023-06-22T05:50:28;19.30;99.90
46085;DHT22;31823;47.032;8.310;2023-06-22T05:52:53;19.70;99.90
46085;DHT22;31823;47.032;8.310;2023-06-22T05:55:19;20.10;99.90
46085;DHT22;31823;47.032;8.310;2023-06-22T05:57:44;20.30;99.90
46085;DHT22;31823;47.032;8.310;2023-06-22T06:00:10;20.50;99.90
46085;DHT22;31823;47.032;8.310;2023-06-22T06:02:37;20.30;99.90
46085;DHT22;31823;47.032;8.310;2023-06-22T06:05:10;19.80;99.90
46085;DHT22;31823;47.032;8.310;2023-06-22T06:07:35;20.00;99.90
46085;DHT22;31823;47.032;8.310;2023-06-22T06:10:03;19.70;99.90
46085;DHT22;31823;47.032;8.310;2023-06-22T06:12:30;19.50;99.90
46085;DHT22;31823;47.032;8.310;2023-06-22T06:14:55;19.50;99.90
46085;DHT22;31823;47.032;8.310;2023-06-22T06:17:22;19.70;99.90
46085;DHT22;31823;47.032;8.310;2023-06-22T06:19:47;20.00;99.90
46085;DHT22;31823;47.032;8.310;2023-06-22T06:22:13;20.10;99.90
46085;DHT22;31823;47.032;8.310;2023-06-22T06:24:38;20.10;99.90
46085;DHT22;31823;47.032;8.310;2023-06-22T06:27:04;20.20;99.90
46085;DHT22;31823;47.032;8.310;2023-06-22T06:29:30;20.20;99.90
46085;DHT22;31823;47.032;8.310;2023-06-22T06:31:56;20.40;99.90
46085;DHT22;31823;47.032;8.310;2023-06-22T06:34:22;20.40;99.90
46085;DHT22;31823;47.032;8.310;2023-06-22T06:36:47;20.70;99.90
46085;DHT22;31823;47.032;8.310;2023-06-22T06:39:13;21.10;99.90
46085;DHT22;31823;47.032;8.310;2023-06-22T06:41:38;21.80;99.90
46085;DHT22;31823;47.032;8.310;2023-06-22T06:44:04;21.90;99.90
46085;DHT22;31823;47.032;8.310;2023-06-22T06:46:30;22.10;99.90
46085;DHT22;31823;47.032;8.310;2023-06-22T06:48:55;22.30;99.90
46085;DHT22;31823;47.032;8.310;2023-06-22T06:51:21;22.40;99.90
46085;DHT22;31823;47.032;8.310;2023-06-22T06:53:46;22.30;99.90
46085;DHT22;31823;47.032;8.310;2023-06-22T06:56:12;22.20;99.90
46085;DHT22;31823;47.032;8.310;2023-06-22T06:58:41;22.40;99.90
46085;DHT22;31823;47.032;8.310;2023-06-22T07:01:08;22.50;99.90
46085;DHT22;31823;47.032;8.310;2023-06-22T07:03:33;22.50;99.90
46085;DHT22;31823;47.032;8.310;2023-06-22T07:05:59;22.30;99.90
46085;DHT22;31823;47.032;8.310;2023-06-22T07:08:25;22.30;99.90
46085;DHT22;31823;47.032;8.310;2023-06-22T07:10:52;22.40;99.90
46085;DHT22;31823;47.032;8.310;2023-06-22T07:13:17;22.40;99.90
46085;DHT22;31823;47.032;8.310;2023-06-22T07:15:43;22.30;99.90
46085;DHT22;31823;47.032;8.310;2023-06-22T07:18:09;22.50;99.90
46085;DHT22;31823;47.032;8.310;2023-06-22T07:20:34;22.80;99.90
46085;DHT22;31823;47.032;8.310;2023-06-22T07:23:00;23.00;99.90
46085;DHT22;31823;47.032;8.310;2023-06-22T07:25:26;23.10;99.90
46085;DHT22;31823;47.032;8.310;2023-06-22T07:28:01;23.20;99.90
46085;DHT22;31823;47.032;8.310;2023-06-22T07:30:27;22.90;99.90
46085;DHT22;31823;47.032;8.310;2023-06-22T07:32:53;22.90;99.90
46085;DHT22;31823;47.032;8.310;2023-06-22T07:35:21;22.80;99.90
46085;DHT22;31823;47.032;8.310;2023-06-22T07:37:47;22.70;99.90
46085;DHT22;31823;47.032;8.310;2023-06-22T07:40:12;23.10;99.90
46085;DHT22;31823;47.032;8.310;2023-06-22T07:42:38;23.20;99.90
46085;DHT22;31823;47.032;8.310;2023-06-22T07:45:04;23.70;99.90
46085;DHT22;31823;47.032;8.310;2023-06-22T07:47:31;23.30;99.90
46085;DHT22;31823;47.032;8.310;2023-06-22T07:50:01;23.90;99.90
46085;DHT22;31823;47.032;8.310;2023-06-22T07:52:29;24.30;99.90
46085;DHT22;31823;47.032;8.310;2023-06-22T07:54:54;24.00;99.90
46085;DHT22;31823;47.032;8.310;2023-06-22T07:57:20;23.80;99.90
46085;DHT22;31823;47.032;8.310;2023-06-22T07:59:46;24.20;99.90
46085;DHT22;31823;47.032;8.310;2023-06-22T08:02:12;24.20;99.90
46085;DHT22;31823;47.032;8.310;2023-06-22T08:04:38;24.50;99.90
46085;DHT22;31823;47.032;8.310;2023-06-22T08:07:04;24.70;99.90
46085;DHT22;31823;47.032;8.310;2023-06-22T08:09:31;24.80;99.90
46085;DHT22;31823;47.032;8.310;2023-06-22T08:11:58;24.70;99.90
46085;DHT22;31823;47.032;8.310;2023-06-22T08:14:29;24.70;99.90
46085;DHT22;31823;47.032;8.310;2023-06-22T08:16:54;24.80;99.90
46085;DHT22;31823;47.032;8.310;2023-06-22T08:19:20;24.70;99.90
46085;DHT22;31823;47.032;8.310;2023-06-22T08:21:46;24.60;99.90
46085;DHT22;31823;47.032;8.310;2023-06-22T08:24:11;24.40;99.90
46085;DHT22;31823;47.032;8.310;2023-06-22T08:26:37;24.30;99.90
46085;DHT22;31823;47.032;8.310;2023-06-22T08:29:03;24.70;99.90
46085;DHT22;31823;47.032;8.310;2023-06-22T08:31:30;24.80;99.90
46085;DHT22;31823;47.032;8.310;2023-06-22T08:33:55;24.60;99.90
46085;DHT22;31823;47.032;8.310;2023-06-22T08:36:21;24.30;99.90
46085;DHT22;31823;47.032;8.310;2023-06-22T08:38:47;24.10;99.90
46085;DHT22;31823;47.032;8.310;2023-06-22T08:41:16;23.80;99.90
46085;DHT22;31823;47.032;8.310;2023-06-22T08:43:43;24.20;99.90
46085;DHT22;31823;47.032;8.310;2023-06-22T08:46:10;24.30;99.90
46085;DHT22;31823;47.032;8.310;2023-06-22T08:48:35;24.30;99.90
46085;DHT22;31823;47.032;8.310;2023-06-22T08:51:01;24.50;99.90
46085;DHT22;31823;47.032;8.310;2023-06-22T08:53:27;24.40;99.90
46085;DHT22;31823;47.032;8.310;2023-06-22T08:55:53;24.30;99.90
46085;DHT22;31823;47.032;8.310;2023-06-22T08:58:18;24.90;99.90
46085;DHT22;31823;47.032;8.310;2023-06-22T09:00:45;25.00;99.90
46085;DHT22;31823;47.032;8.310;2023-06-22T09:03:11;25.10;99.90
46085;DHT22;31823;47.032;8.310;2023-06-22T09:05:37;25.40;99.90
46085;DHT22;31823;47.032;8.310;2023-06-22T09:08:03;25.30;99.90
46085;DHT22;31823;47.032;8.310;2023-06-22T09:10:29;25.30;99.90
46085;DHT22;31823;47.032;8.310;2023-06-22T09:12:54;25.20;99.90
46085;DHT22;31823;47.032;8.310;2023-06-22T09:15:20;25.20;99.90
46085;DHT22;31823;47.032;8.310;2023-06-22T09:17:46;25.30;99.90
46085;DHT22;31823;47.032;8.310;2023-06-22T09:20:11;25.60;99.90
46085;DHT22;31823;47.032;8.310;2023-06-22T09:22:37;25.20;99.90
46085;DHT22;31823;47.032;8.310;2023-06-22T09:25:03;25.20;99.90
46085;DHT22;31823;47.032;8.310;2023-06-22T09:27:30;24.80;99.90
46085;DHT22;31823;47.032;8.310;2023-06-22T09:29:55;24.60;99.90
46085;DHT22;31823;47.032;8.310;2023-06-22T09:32:21;25.10;99.90
46085;DHT22;31823;47.032;8.310;2023-06-22T09:34:46;25.10;99.90
46085;DHT22;31823;47.032;8.310;2023-06-22T09:37:12;25.20;99.90
46085;DHT22;31823;47.032;8.310;2023-06-22T09:39:37;25.60;99.90
46085;DHT22;31823;47.032;8.310;2023-06-22T09:42:03;25.90;99.90
46085;DHT22;31823;47.032;8.310;2023-06-22T09:44:30;25.60;99.90
46085;DHT22;31823;47.032;8.310;2023-06-22T09:46:56;25.90;99.90
46085;DHT22;31823;47.032;8.310;2023-06-22T09:49:22;25.90;99.90
46085;DHT22;31823;47.032;8.310;2023-06-22T09:51:47;25.40;99.90
46085;DHT22;31823;47.032;8.310;2023-06-22T09:54:16;25.10;99.90
46085;DHT22;31823;47.032;8.310;2023-06-22T09:56:42;25.10;99.90
46085;DHT22;31823;47.032;8.310;2023-06-22T09:59:07;24.80;99.90
46085;DHT22;31823;47.032;8.310;2023-06-22T10:01:33;25.10;99.90
46085;DHT22;31823;47.032;8.310;2023-06-22T10:03:58;25.20;99.90
46085;DHT22;31823;47.032;8.310;2023-06-22T10:06:24;24.80;99.90
46085;DHT22;31823;47.032;8.310;2023-06-22T10:08:51;24.50;99.90
46085;DHT22;31823;47.032;8.310;2023-06-22T10:11:16;24.70;99.90
46085;DHT22;31823;47.032;8.310;2023-06-22T10:13:42;25.30;99.90
46085;DHT22;31823;47.032;8.310;2023-06-22T10:16:08;25.10;99.90
46085;DHT22;31823;47.032;8.310;2023-06-22T10:18:33;25.30;99.90
46085;DHT22;31823;47.032;8.310;2023-06-22T10:20:59;25.60;99.90
46085;DHT22;31823;47.032;8.310;2023-06-22T10:23:25;26.40;99.90
46085;DHT22;31823;47.032;8.310;2023-06-22T10:25:50;26.90;99.90
46085;DHT22;31823;47.032;8.310;2023-06-22T10:28:16;26.50;99.90
46085;DHT22;31823;47.032;8.310;2023-06-22T10:30:42;26.40;99.90
46085;DHT22;31823;47.032;8.310;2023-06-22T10:33:09;26.40;99.90
46085;DHT22;31823;47.032;8.310;2023-06-22T10:35:35;26.30;99.90
46085;DHT22;31823;47.032;8.310;2023-06-22T10:38:00;26.40;99.90
46085;DHT22;31823;47.032;8.310;2023-06-22T10:40:26;25.90;99.90
46085;DHT22;31823;47.032;8.310;2023-06-22T10:42:51;25.20;99.90
46085;DHT22;31823;47.032;8.310;2023-06-22T10:45:17;25.00;99.90
46085;DHT22;31823;47.032;8.310;2023-06-22T10:47:43;25.00;99.90
46085;DHT22;31823;47.032;8.310;2023-06-22T10:50:08;25.10;99.90
46085;DHT22;31823;47.032;8.310;2023-06-22T10:52:34;24.90;99.90
46085;DHT22;31823;47.032;8.310;2023-06-22T10:55:00;24.80;99.90
46085;DHT22;31823;47.032;8.310;2023-06-22T10:57:25;25.10;99.90
46085;DHT22;31823;47.032;8.310;2023-06-22T10:59:51;25.20;99.90
46085;DHT22;31823;47.032;8.310;2023-06-22T11:02:17;25.30;99.90
46085;DHT22;31823;47.032;8.310;2023-06-22T11:04:42;25.20;99.90
46085;DHT22;31823;47.032;8.310;2023-06-22T11:07:09;24.80;99.90
46085;DHT22;31823;47.032;8.310;2023-06-22T11:09:35;24.70;99.90
46085;DHT22;31823;47.032;8.310;2023-06-22T11:12:00;24.80;99.90
46085;DHT22;31823;47.032;8.310;2023-06-22T11:14:26;24.80;99.90
46085;DHT22;31823;47.032;8.310;2023-06-22T11:16:51;25.10;99.90
46085;DHT22;31823;47.032;8.310;2023-06-22T11:19:18;25.90;99.90
46085;DHT22;31823;47.032;8.310;2023-06-22T11:21:43;26.30;99.90
46085;DHT22;31823;47.032;8.310;2023-06-22T11:24:09;26.50;99.90
46085;DHT22;31823;47.032;8.310;2023-06-22T11:26:34;26.60;99.90
46085;DHT22;31823;47.032;8.310;2023-06-22T11:29:00;26.50;99.90
46085;DHT22;31823;47.032;8.310;2023-06-22T11:31:26;26.50;99.90
46085;DHT22;31823;47.032;8.310;2023-06-22T11:33:52;26.60;99.90
46085;DHT22;31823;47.032;8.310;2023-06-22T11:36:18;26.80;99.90
46085;DHT22;31823;47.032;8.310;2023-06-22T11:38:44;26.90;99.90
46085;DHT22;31823;47.032;8.310;2023-06-22T11:41:10;27.00;99.90
46085;DHT22;31823;47.032;8.310;2023-06-22T11:43:36;27.00;99.90
46085;DHT22;31823;47.032;8.310;2023-06-22T11:46:05;27.20;99.90
46085;DHT22;31823;47.032;8.310;2023-06-22T11:48:31;27.40;99.90
46085;DHT22;31823;47.032;8.310;2023-06-22T11:50:57;27.40;99.90
46085;DHT22;31823;47.032;8.310;2023-06-22T11:53:24;27.30;99.90
46085;DHT22;31823;47.032;8.310;2023-06-22T11:55:50;27.40;99.90
46085;DHT22;31823;47.032;8.310;2023-06-22T11:58:16;27.60;99.90
46085;DHT22;31823;47.032;8.310;2023-06-22T12:00:42;27.80;99.90
46085;DHT22;31823;47.032;8.310;2023-06-22T12:03:08;28.20;99.90
46085;DHT22;31823;47.032;8.310;2023-06-22T12:05:34;27.90;99.90
46085;DHT22;31823;47.032;8.310;2023-06-22T12:08:00;28.00;99.90
46085;DHT22;31823;47.032;8.310;2023-06-22T12:10:26;28.20;99.90
46085;DHT22;31823;47.032;8.310;2023-06-22T12:12:53;28.40;99.90
46085;DHT22;31823;47.032;8.310;2023-06-22T12:15:19;28.60;99.90
46085;DHT22;31823;47.032;8.310;2023-06-22T12:17:45;28.20;99.90
46085;DHT22;31823;47.032;8.310;2023-06-22T12:20:11;28.00;99.90
46085;DHT22;31823;47.032;8.310;2023-06-22T12:22:36;27.90;99.90
46085;DHT22;31823;47.032;8.310;2023-06-22T12:25:03;27.80;99.90
46085;DHT22;31823;47.032;8.310;2023-06-22T12:27:29;27.80;99.90
46085;DHT22;31823;47.032;8.310;2023-06-22T12:29:56;27.60;99.90
46085;DHT22;31823;47.032;8.310;2023-06-22T12:32:21;27.80;99.90
46085;DHT22;31823;47.032;8.310;2023-06-22T12:34:47;27.90;99.90
46085;DHT22;31823;47.032;8.310;2023-06-22T12:37:12;28.00;99.90
46085;DHT22;31823;47.032;8.310;2023-06-22T12:39:40;28.10;99.90
46085;DHT22;31823;47.032;8.310;2023-06-22T12:42:06;28.20;99.90
46085;DHT22;31823;47.032;8.310;2023-06-22T12:44:34;28.40;99.90
46085;DHT22;31823;47.032;8.310;2023-06-22T12:47:00;28.40;99.90
46085;DHT22;31823;47.032;8.310;2023-06-22T12:49:25;27.80;99.90
46085;DHT22;31823;47.032;8.310;2023-06-22T12:51:51;28.10;99.90
46085;DHT22;31823;47.032;8.310;2023-06-22T12:54:17;27.90;99.90
46085;DHT22;31823;47.032;8.310;2023-06-22T12:56:42;28.20;99.90
46085;DHT22;31823;47.032;8.310;2023-06-22T12:59:10;28.10;99.90
46085;DHT22;31823;47.032;8.310;2023-06-22T13:01:36;28.10;99.90
46085;DHT22;31823;47.032;8.310;2023-06-22T13:04:02;28.00;99.90
46085;DHT22;31823;47.032;8.310;2023-06-22T13:06:28;27.80;99.90
46085;DHT22;31823;47.032;8.310;2023-06-22T13:08:54;27.70;99.90
46085;DHT22;31823;47.032;8.310;2023-06-22T13:11:19;27.60;99.90
46085;DHT22;31823;47.032;8.310;2023-06-22T13:13:45;27.40;99.90
46085;DHT22;31823;47.032;8.310;2023-06-22T13:16:11;27.40;99.90
46085;DHT22;31823;47.032;8.310;2023-06-22T13:18:37;27.30;99.90
46085;DHT22;31823;47.032;8.310;2023-06-22T13:21:03;27.00;99.90
46085;DHT22;31823;47.032;8.310;2023-06-22T13:23:29;26.80;99.60
46085;DHT22;31823;47.032;8.310;2023-06-22T13:25:54;26.70;98.90
46085;DHT22;31823;47.032;8.310;2023-06-22T13:28:20;26.60;97.60
46085;DHT22;31823;47.032;8.310;2023-06-22T13:30:47;26.60;95.90
46085;DHT22;31823;47.032;8.310;2023-06-22T13:33:13;26.40;94.90
46085;DHT22;31823;47.032;8.310;2023-06-22T13:35:39;26.40;94.30
46085;DHT22;31823;47.032;8.310;2023-06-22T13:38:05;26.30;94.40
46085;DHT22;31823;47.032;8.310;2023-06-22T13:40:30;26.20;94.80
46085;DHT22;31823;47.032;8.310;2023-06-22T13:42:56;25.90;95.70
46085;DHT22;31823;47.032;8.310;2023-06-22T13:45:22;25.30;98.00
46085;DHT22;31823;47.032;8.310;2023-06-22T13:47:48;24.60;99.90
46085;DHT22;31823;47.032;8.310;2023-06-22T13:50:13;24.00;99.90
46085;DHT22;31823;47.032;8.310;2023-06-22T13:52:39;23.40;99.90
46085;DHT22;31823;47.032;8.310;2023-06-22T13:55:05;23.20;99.90
46085;DHT22;31823;47.032;8.310;2023-06-22T13:57:32;23.30;99.90
46085;DHT22;31823;47.032;8.310;2023-06-22T13:59:58;22.90;99.90
46085;DHT22;31823;47.032;8.310;2023-06-22T14:02:23;21.70;99.90
46085;DHT22;31823;47.032;8.310;2023-06-22T14:04:49;21.70;99.90
46085;DHT22;31823;47.032;8.310;2023-06-22T14:07:14;22.30;99.90
46085;DHT22;31823;47.032;8.310;2023-06-22T14:09:40;22.80;99.90
46085;DHT22;31823;47.032;8.310;2023-06-22T14:12:06;23.10;99.90
46085;DHT22;31823;47.032;8.310;2023-06-22T14:14:33;23.00;99.90
46085;DHT22;31823;47.032;8.310;2023-06-22T14:16:59;23.10;99.90
46085;DHT22;31823;47.032;8.310;2023-06-22T14:19:24;23.40;99.90
46085;DHT22;31823;47.032;8.310;2023-06-22T14:21:50;24.10;99.90
46085;DHT22;31823;47.032;8.310;2023-06-22T14:24:16;24.60;99.90
46085;DHT22;31823;47.032;8.310;2023-06-22T14:26:41;24.90;99.90
46085;DHT22;31823;47.032;8.310;2023-06-22T14:29:07;24.60;99.90
46085;DHT22;31823;47.032;8.310;2023-06-22T14:31:32;24.60;99.90
46085;DHT22;31823;47.032;8.310;2023-06-22T14:33:58;24.70;99.90
46085;DHT22;31823;47.032;8.310;2023-06-22T14:36:24;24.60;99.90
46085;DHT22;31823;47.032;8.310;2023-06-22T14:38:49;24.70;99.90
46085;DHT22;31823;47.032;8.310;2023-06-22T14:41:15;24.60;99.90
46085;DHT22;31823;47.032;8.310;2023-06-22T14:43:46;24.70;99.90
46085;DHT22;31823;47.032;8.310;2023-06-22T14:46:13;24.50;99.90
46085;DHT22;31823;47.032;8.310;2023-06-22T14:48:39;24.30;99.90
46085;DHT22;31823;47.032;8.310;2023-06-22T14:51:05;23.90;99.90
46085;DHT22;31823;47.032;8.310;2023-06-22T14:53:30;24.00;99.90
46085;DHT22;31823;47.032;8.310;2023-06-22T14:55:56;24.00;99.90
46085;DHT22;31823;47.032;8.310;2023-06-22T14:58:21;24.10;99.90
46085;DHT22;31823;47.032;8.310;2023-06-22T15:00:47;24.30;99.90
46085;DHT22;31823;47.032;8.310;2023-06-22T15:03:12;24.50;99.90
46085;DHT22;31823;47.032;8.310;2023-06-22T15:05:43;24.40;99.90
46085;DHT22;31823;47.032;8.310;2023-06-22T15:08:09;24.40;99.90
46085;DHT22;31823;47.032;8.310;2023-06-22T15:10:34;23.60;99.90
46085;DHT22;31823;47.032;8.310;2023-06-22T15:13:00;22.80;99.90
46085;DHT22;31823;47.032;8.310;2023-06-22T15:15:25;22.70;99.90
46085;DHT22;31823;47.032;8.310;2023-06-22T15:17:51;22.80;99.90
46085;DHT22;31823;47.032;8.310;2023-06-22T15:20:16;22.40;99.90
46085;DHT22;31823;47.032;8.310;2023-06-22T15:22:42;22.20;99.90
46085;DHT22;31823;47.032;8.310;2023-06-22T15:25:07;22.00;99.90